Mc Kellar Sipes Regional Airport Jackson US
ICAO: KMKL
IATA: MKL
Category: Medium
Scheduled Services: Yes

Elevation: 434 ft
TransAlt. 18000 ft.

Airport Communications:
ASOS:119.325
MEMPHIS CNTR:134.65
CTAF:127.15
GND:120.9
ARNG OPS:41.5
JACKSON RDO:122.2
JACKSON TWR:127.15
UNICOM:122.95

KMKL Zoom In..

If you have problems with the map follow the link
https://www.worldairports.se/pages/airport.php?
ICAO=KMKL

Runways:

(A) RW 02 length 6006 ft width 150 ft
ILS 109.10 / hdg 23

(B) RW 11 length 3538 ft width 100 ft
---- / hdg 113

(C) RW 20 length 6006 ft width 150 ft
---- / hdg 203

(D) RW 29 length 3538 ft width 100 ft
---- / hdg 293

Location; KMKL
Day. 21 / Time. 04.53 Zulu
* Altimeter: 30.59
* Temperature: -04° c. -24.8°f.
* Wind from: 010° Speed 10 kn.
Dewpoint: -09° c.
Visibility: 10 Statute Miles.
Clouds: Overcast 2100 ft.

KMKL 210453Z AUTO 01010KT 10SM OVC021 M04/M09 A3059 RMK AO2 SLP366 T10441089


Wind From 010°
Speed 10 kn.

 
 
jpsmedia worldairports.se 2020   terms of use